createdAt,value
2019-02-03T00:00:32.880Z,5.97
2019-02-03T00:01:33.520Z,5.97
2019-02-03T00:02:32.750Z,5.96
2019-02-03T00:03:32.973Z,5.97
2019-02-03T00:04:32.956Z,5.95
2019-02-03T00:05:32.714Z,5.95
2019-02-03T00:06:33.723Z,5.96
2019-02-03T00:07:33.002Z,5.94
2019-02-03T00:08:32.708Z,5.93
2019-02-03T00:09:32.581Z,5.94
2019-02-03T00:10:32.607Z,5.93
2019-02-03T00:11:32.773Z,5.92
2019-02-03T00:12:33.018Z,5.95
2019-02-03T00:13:32.841Z,5.94
2019-02-03T00:14:32.754Z,5.92
2019-02-03T00:15:32.604Z,5.92
2019-02-03T00:16:32.613Z,5.91
2019-02-03T00:17:32.561Z,5.89
2019-02-03T00:18:34.923Z,5.9
2019-02-03T00:19:32.966Z,5.89
2019-02-03T00:20:32.814Z,5.88
2019-02-03T00:21:32.622Z,5.88
2019-02-03T00:22:32.558Z,5.9
2019-02-03T00:23:34.489Z,5.88
2019-02-03T00:24:32.572Z,5.88
2019-02-03T00:25:32.656Z,5.86
2019-02-03T00:26:32.602Z,5.86
2019-02-03T00:27:32.614Z,5.86
2019-02-03T00:28:32.565Z,5.86
2019-02-03T00:29:32.695Z,5.87
2019-02-03T00:30:33.263Z,5.87
2019-02-03T00:31:34.446Z,5.87
2019-02-03T00:32:32.577Z,5.86
2019-02-03T00:33:32.717Z,5.85
2019-02-03T00:34:32.715Z,5.84
2019-02-03T00:35:33.561Z,5.85
2019-02-03T00:36:32.525Z,5.84
2019-02-03T00:37:33.000Z,5.84
2019-02-03T00:38:32.815Z,5.85
2019-02-03T00:39:34.293Z,5.85
2019-02-03T00:40:33.063Z,5.85
2019-02-03T00:41:33.257Z,5.83
2019-02-03T00:42:32.631Z,5.83
2019-02-03T00:43:32.671Z,5.83
2019-02-03T00:44:32.649Z,5.83
2019-02-03T00:45:32.955Z,5.83
2019-02-03T00:46:33.033Z,5.83
2019-02-03T00:47:32.697Z,5.83
2019-02-03T00:48:32.870Z,5.84
2019-02-03T00:49:32.549Z,5.82
2019-02-03T00:50:32.808Z,5.83
2019-02-03T00:51:32.594Z,5.82
2019-02-03T00:52:32.681Z,5.82
2019-02-03T00:53:32.520Z,5.81
2019-02-03T00:54:32.807Z,5.81
2019-02-03T00:55:32.919Z,5.8
2019-02-03T00:56:32.750Z,5.79
2019-02-03T00:57:32.790Z,5.81
2019-02-03T00:58:33.349Z,5.79
2019-02-03T00:59:32.492Z,5.78
2019-02-03T01:00:32.877Z,5.79
2019-02-03T01:01:32.783Z,5.78
2019-02-03T01:02:32.974Z,5.75
2019-02-03T01:03:34.335Z,5.75
2019-02-03T01:04:34.364Z,5.75
2019-02-03T01:05:32.640Z,5.75
2019-02-03T01:06:32.637Z,5.76
2019-02-03T01:07:32.466Z,5.75
2019-02-03T01:08:32.484Z,5.74
2019-02-03T01:09:34.241Z,5.75
2019-02-03T01:10:32.673Z,5.74
2019-02-03T01:11:32.530Z,5.71
2019-02-03T01:12:34.216Z,5.71
2019-02-03T01:13:32.940Z,5.72
2019-02-03T01:14:32.455Z,5.71
2019-02-03T01:15:32.887Z,5.71
2019-02-03T01:16:32.807Z,5.72
2019-02-03T01:17:32.498Z,5.7
2019-02-03T01:18:32.759Z,5.71
2019-02-03T01:19:32.565Z,5.72
2019-02-03T01:20:34.602Z,5.71
2019-02-03T01:21:34.316Z,5.7
2019-02-03T01:22:32.656Z,5.7
2019-02-03T01:23:32.854Z,5.69
2019-02-03T01:24:32.692Z,5.69
2019-02-03T01:25:32.696Z,5.7
2019-02-03T01:26:32.421Z,5.67
2019-02-03T01:27:32.616Z,5.69
2019-02-03T01:28:34.323Z,5.68
2019-02-03T01:29:33.074Z,5.67
2019-02-03T01:30:32.666Z,5.66
2019-02-03T01:31:32.582Z,5.66
2019-02-03T01:32:32.474Z,5.66
2019-02-03T01:33:32.586Z,5.67
2019-02-03T01:34:32.788Z,5.66
2019-02-03T01:35:32.650Z,5.65
2019-02-03T01:36:34.074Z,5.66
2019-02-03T01:37:43.150Z,5.65
2019-02-03T01:38:32.580Z,5.67
2019-02-03T01:39:33.118Z,5.64
2019-02-03T01:40:32.647Z,5.63
2019-02-03T01:41:32.517Z,5.63
2019-02-03T01:42:32.553Z,5.62
2019-02-03T01:43:32.440Z,5.62
2019-02-03T01:44:34.235Z,5.63
2019-02-03T01:45:32.540Z,5.64
2019-02-03T01:46:32.444Z,5.64
2019-02-03T01:47:32.460Z,5.62
2019-02-03T01:48:32.498Z,5.61
2019-02-03T01:49:32.676Z,5.6
2019-02-03T01:50:32.498Z,5.62
2019-02-03T01:51:32.442Z,5.6
2019-02-03T01:52:33.569Z,5.6
2019-02-03T01:53:32.629Z,5.6
2019-02-03T01:54:32.469Z,5.6
2019-02-03T01:55:32.413Z,5.59
2019-02-03T01:56:32.447Z,5.58
2019-02-03T01:57:32.422Z,5.59
2019-02-03T01:58:32.378Z,5.59
2019-02-03T01:59:32.437Z,5.6
2019-02-03T02:00:32.426Z,5.6
2019-02-03T02:01:32.733Z,5.62
2019-02-03T02:02:32.383Z,5.58
2019-02-03T02:03:32.387Z,5.57
2019-02-03T02:04:32.439Z,5.57
2019-02-03T02:05:32.404Z,5.57
2019-02-03T02:06:32.426Z,5.56
2019-02-03T02:07:32.401Z,5.57
2019-02-03T02:08:32.399Z,5.55
2019-02-03T02:09:32.405Z,5.55
2019-02-03T02:10:32.389Z,5.56
2019-02-03T02:11:32.844Z,5.54
2019-02-03T02:12:32.479Z,5.53
2019-02-03T02:13:32.486Z,5.54
2019-02-03T02:14:32.596Z,5.54
2019-02-03T02:15:32.409Z,5.54
2019-02-03T02:16:32.420Z,5.54
2019-02-03T02:17:35.892Z,5.54
2019-02-03T02:18:32.661Z,5.54
2019-02-03T02:19:32.361Z,5.52
2019-02-03T02:20:32.679Z,5.53
2019-02-03T02:21:32.405Z,5.54
2019-02-03T02:22:32.713Z,5.53
2019-02-03T02:23:32.431Z,5.53
2019-02-03T02:24:33.861Z,5.53
2019-02-03T02:25:32.484Z,5.53
2019-02-03T02:26:33.139Z,5.52
2019-02-03T02:27:32.385Z,5.51
2019-02-03T02:28:32.351Z,5.52
2019-02-03T02:29:32.533Z,5.53
2019-02-03T02:30:32.694Z,5.51
2019-02-03T02:31:32.418Z,5.5
2019-02-03T02:32:34.196Z,5.5
2019-02-03T02:33:32.357Z,5.52
2019-02-03T02:34:32.692Z,5.51
2019-02-03T02:35:32.423Z,5.51
2019-02-03T02:36:32.764Z,5.53
2019-02-03T02:37:32.329Z,5.52
2019-02-03T02:38:32.302Z,5.51
2019-02-03T02:39:35.674Z,5.5
2019-02-03T02:40:32.463Z,5.49
2019-02-03T02:41:32.664Z,5.5
2019-02-03T02:42:32.379Z,5.49
2019-02-03T02:43:32.380Z,5.47
2019-02-03T02:44:32.467Z,5.47
2019-02-03T02:45:32.390Z,5.48
2019-02-03T02:46:32.661Z,5.48
2019-02-03T02:47:32.392Z,5.49
2019-02-03T02:48:32.431Z,5.45
2019-02-03T02:49:32.527Z,5.46
2019-02-03T02:50:32.348Z,5.47
2019-02-03T02:51:34.118Z,5.46
2019-02-03T02:52:32.436Z,5.44
2019-02-03T02:53:34.133Z,5.43
2019-02-03T02:54:32.424Z,5.43
2019-02-03T02:55:32.563Z,5.44
2019-02-03T02:56:32.827Z,5.45
2019-02-03T02:57:34.326Z,5.42
2019-02-03T02:58:32.376Z,5.42
2019-02-03T02:59:32.317Z,5.41
2019-02-03T03:00:34.129Z,5.43
2019-02-03T03:01:32.575Z,5.42
2019-02-03T03:02:32.339Z,5.43
2019-02-03T03:03:32.590Z,5.44
2019-02-03T03:04:32.382Z,5.43
2019-02-03T03:05:32.566Z,5.42
2019-02-03T03:06:32.618Z,5.41
2019-02-03T03:07:32.357Z,5.41
2019-02-03T03:08:32.304Z,5.4
2019-02-03T03:09:32.626Z,5.41
2019-02-03T03:10:32.645Z,5.41
2019-02-03T03:11:32.519Z,5.4
2019-02-03T03:12:32.947Z,5.4
2019-02-03T03:13:34.234Z,5.39
2019-02-03T03:14:32.311Z,5.39
2019-02-03T03:15:32.481Z,5.42
2019-02-03T03:16:32.529Z,5.42
2019-02-03T03:17:32.419Z,5.4
2019-02-03T03:18:32.355Z,5.39
2019-02-03T03:19:32.287Z,5.4
2019-02-03T03:20:32.388Z,5.4
2019-02-03T03:21:34.801Z,5.42
2019-02-03T03:22:32.305Z,5.4
2019-02-03T03:23:32.551Z,5.4
2019-02-03T03:24:32.394Z,5.4
2019-02-03T03:25:32.251Z,5.4
2019-02-03T03:26:32.303Z,5.4
2019-02-03T03:27:32.859Z,5.38
2019-02-03T03:28:32.336Z,5.38
2019-02-03T03:29:35.888Z,5.37
2019-02-03T03:30:32.463Z,5.39
2019-02-03T03:31:32.566Z,5.38
2019-02-03T03:32:32.428Z,5.38
2019-02-03T03:33:32.414Z,5.39
2019-02-03T03:34:32.273Z,5.38
2019-02-03T03:35:35.107Z,5.39
2019-02-03T03:36:32.273Z,5.4
2019-02-03T03:37:34.301Z,5.37
2019-02-03T03:38:32.948Z,5.4
2019-02-03T03:39:32.435Z,5.4
2019-02-03T03:40:32.230Z,5.4
2019-02-03T03:41:32.270Z,5.39
2019-02-03T03:42:32.327Z,5.38
2019-02-03T03:43:32.512Z,5.4
2019-02-03T03:44:32.322Z,5.39
2019-02-03T03:45:33.948Z,5.38
2019-02-03T03:46:32.607Z,5.4
2019-02-03T03:47:32.326Z,5.39
2019-02-03T03:48:32.302Z,5.39
2019-02-03T03:49:32.329Z,5.39
2019-02-03T03:50:32.294Z,5.37
2019-02-03T03:51:32.456Z,5.41
2019-02-03T03:52:32.221Z,5.4
2019-02-03T03:53:33.729Z,5.38
2019-02-03T03:54:32.639Z,5.37
2019-02-03T03:55:32.223Z,5.37
2019-02-03T03:56:32.395Z,5.38
2019-02-03T03:57:32.292Z,5.39
2019-02-03T03:58:32.194Z,5.38
2019-02-03T03:59:32.384Z,5.39
2019-02-03T04:00:32.369Z,5.39
2019-02-03T04:01:32.786Z,5.39
2019-02-03T04:02:32.359Z,5.39
2019-02-03T04:03:32.373Z,5.38
2019-02-03T04:04:32.691Z,5.37
2019-02-03T04:05:32.237Z,5.37
2019-02-03T04:06:32.380Z,5.36
2019-02-03T04:07:32.315Z,5.36
2019-02-03T04:08:45.989Z,5.34
2019-02-03T04:09:32.937Z,5.35
2019-02-03T04:10:32.188Z,5.35
2019-02-03T04:11:32.253Z,5.33
2019-02-03T04:12:32.443Z,5.32
2019-02-03T04:13:32.876Z,5.32
2019-02-03T04:14:32.312Z,5.32
2019-02-03T04:15:32.484Z,5.31
2019-02-03T04:16:32.574Z,5.3
2019-02-03T04:17:32.246Z,5.31
2019-02-03T04:18:32.309Z,5.3
2019-02-03T04:19:32.622Z,5.3
2019-02-03T04:20:32.817Z,5.3
2019-02-03T04:21:32.931Z,5.28
2019-02-03T04:22:32.237Z,5.3
2019-02-03T04:23:32.201Z,5.27
2019-02-03T04:24:32.218Z,5.28
2019-02-03T04:25:32.274Z,5.27
2019-02-03T04:26:32.241Z,5.27
2019-02-03T04:27:32.438Z,5.26
2019-02-03T04:28:32.201Z,5.25
2019-02-03T04:29:32.509Z,5.25
2019-02-03T04:30:32.443Z,5.26
2019-02-03T04:31:32.238Z,5.23
2019-02-03T04:32:32.526Z,5.23
2019-02-03T04:33:32.184Z,5.25
2019-02-03T04:34:32.192Z,5.23
2019-02-03T04:35:32.594Z,5.2
2019-02-03T04:36:32.390Z,5.2
2019-02-03T04:37:32.430Z,5.19
2019-02-03T04:38:32.192Z,5.19
2019-02-03T04:39:32.415Z,5.19
2019-02-03T04:40:32.244Z,5.17
2019-02-03T04:41:32.198Z,5.16
2019-02-03T04:42:33.927Z,5.17
2019-02-03T04:43:32.448Z,5.17
2019-02-03T04:44:32.439Z,5.18
2019-02-03T04:45:32.144Z,5.14
2019-02-03T04:46:32.924Z,5.12
2019-02-03T04:47:32.301Z,5.1
2019-02-03T04:48:33.004Z,5.1
2019-02-03T04:49:32.624Z,5.09
2019-02-03T04:50:36.951Z,5.09
2019-02-03T04:51:32.223Z,5.06
2019-02-03T04:52:32.151Z,5.07
2019-02-03T04:53:32.460Z,5.03
2019-02-03T04:54:32.542Z,5.02
2019-02-03T04:55:33.441Z,5.02
2019-02-03T04:56:33.933Z,4.99
2019-02-03T04:57:32.339Z,5
2019-02-03T04:58:33.627Z,4.96
2019-02-03T04:59:32.334Z,4.98
2019-02-03T05:00:32.495Z,4.99
2019-02-03T05:01:32.360Z,4.97
2019-02-03T05:02:32.577Z,4.95
2019-02-03T05:03:32.192Z,4.96
2019-02-03T05:04:32.115Z,4.97
2019-02-03T05:05:32.294Z,4.94
2019-02-03T05:06:33.992Z,4.95
2019-02-03T05:07:32.202Z,4.94
2019-02-03T05:08:32.126Z,4.94
2019-02-03T05:09:32.547Z,4.95
2019-02-03T05:10:32.138Z,4.93
2019-02-03T05:11:32.133Z,4.94
2019-02-03T05:12:32.190Z,4.93
2019-02-03T05:13:32.588Z,4.93
2019-02-03T05:14:34.256Z,4.93
2019-02-03T05:15:32.173Z,4.91
2019-02-03T05:16:32.292Z,4.91
2019-02-03T05:17:32.112Z,4.92
2019-02-03T05:18:32.359Z,4.93
2019-02-03T05:19:32.242Z,4.91
2019-02-03T05:20:32.406Z,4.89
2019-02-03T05:21:32.293Z,4.9
2019-02-03T05:22:33.793Z,4.92
2019-02-03T05:23:32.126Z,4.9
2019-02-03T05:24:32.415Z,4.9
2019-02-03T05:25:32.443Z,4.87
2019-02-03T05:26:32.186Z,4.89
2019-02-03T05:27:32.249Z,4.88
2019-02-03T05:28:32.109Z,4.88
2019-02-03T05:29:32.155Z,4.88
2019-02-03T05:30:34.059Z,4.86
2019-02-03T05:31:32.183Z,4.86
2019-02-03T05:32:32.237Z,4.86
2019-02-03T05:33:32.210Z,4.83
2019-02-03T05:34:32.381Z,4.85
2019-02-03T05:35:32.298Z,4.83
2019-02-03T05:36:32.150Z,4.85
2019-02-03T05:37:32.279Z,4.86
2019-02-03T05:38:33.659Z,4.86
2019-02-03T05:39:32.346Z,4.86
2019-02-03T05:40:32.201Z,4.84
2019-02-03T05:41:32.240Z,4.83
2019-02-03T05:42:32.132Z,4.83
2019-02-03T05:43:33.890Z,4.83
2019-02-03T05:44:32.192Z,4.81
2019-02-03T05:45:32.280Z,4.81
2019-02-03T05:46:33.869Z,4.81
2019-02-03T05:47:32.482Z,4.8
2019-02-03T05:48:32.180Z,4.81
2019-02-03T05:49:32.180Z,4.81
2019-02-03T05:50:32.490Z,4.8
2019-02-03T05:51:32.825Z,4.78
2019-02-03T05:52:32.208Z,4.8
2019-02-03T05:53:32.181Z,4.79
2019-02-03T05:54:33.502Z,4.78
2019-02-03T05:55:32.360Z,4.79
2019-02-03T05:56:32.715Z,4.76
2019-02-03T05:57:32.275Z,4.77
2019-02-03T05:58:32.060Z,4.77
2019-02-03T05:59:32.018Z,4.74
2019-02-03T06:00:32.288Z,4.72
2019-02-03T06:01:32.825Z,4.73
2019-02-03T06:02:33.966Z,4.72
2019-02-03T06:03:32.323Z,4.73
2019-02-03T06:04:32.128Z,4.72
2019-02-03T06:05:32.184Z,4.73
2019-02-03T06:06:32.027Z,4.75
2019-02-03T06:07:32.578Z,4.75
2019-02-03T06:08:32.531Z,4.74
2019-02-03T06:09:37.396Z,4.73
2019-02-03T06:10:33.737Z,4.73
2019-02-03T06:11:32.113Z,4.72
2019-02-03T06:12:32.342Z,4.72
2019-02-03T06:13:32.190Z,4.74
2019-02-03T06:14:32.452Z,4.7
2019-02-03T06:15:32.381Z,4.7
2019-02-03T06:16:32.090Z,4.69
2019-02-03T06:17:32.057Z,4.69
2019-02-03T06:18:33.661Z,4.7
2019-02-03T06:19:32.698Z,4.69
2019-02-03T06:20:32.651Z,4.68
2019-02-03T06:21:32.134Z,4.67
2019-02-03T06:22:32.540Z,4.7
2019-02-03T06:23:32.408Z,4.68
2019-02-03T06:24:32.511Z,4.67
2019-02-03T06:25:32.544Z,4.7
2019-02-03T06:26:33.335Z,4.7
2019-02-03T06:27:32.739Z,4.7
2019-02-03T06:28:32.270Z,4.68
2019-02-03T06:29:32.273Z,4.66
2019-02-03T06:30:32.714Z,4.67
2019-02-03T06:31:33.874Z,4.66
2019-02-03T06:32:32.086Z,4.65
2019-02-03T06:33:32.632Z,4.65
2019-02-03T06:34:32.354Z,4.66
2019-02-03T06:35:32.144Z,4.67
2019-02-03T06:36:32.308Z,4.66
2019-02-03T06:37:32.150Z,4.65
2019-02-03T06:38:32.467Z,4.66
2019-02-03T06:39:32.144Z,4.66
2019-02-03T06:40:32.122Z,4.66
2019-02-03T06:41:32.252Z,4.64
2019-02-03T06:42:32.278Z,4.65
2019-02-03T06:43:35.895Z,4.63
2019-02-03T06:44:31.978Z,4.63
2019-02-03T06:45:33.886Z,4.65
2019-02-03T06:46:32.195Z,4.64
2019-02-03T06:47:32.410Z,4.64
2019-02-03T06:48:32.292Z,4.64
2019-02-03T06:49:32.540Z,4.64
2019-02-03T06:50:32.350Z,4.62
2019-02-03T06:51:34.413Z,4.62
2019-02-03T06:52:32.129Z,4.63
2019-02-03T06:53:32.321Z,4.62
2019-02-03T06:54:32.504Z,4.61
2019-02-03T06:55:32.330Z,4.6
2019-02-03T06:56:32.040Z,4.6
2019-02-03T06:57:32.325Z,4.61
2019-02-03T06:58:32.526Z,4.62
2019-02-03T06:59:34.473Z,4.62
2019-02-03T07:00:32.362Z,4.61
2019-02-03T07:01:32.165Z,4.62
2019-02-03T07:02:32.222Z,4.63
2019-02-03T07:03:32.193Z,4.62
2019-02-03T07:04:32.217Z,4.62
2019-02-03T07:05:32.019Z,4.61
2019-02-03T07:06:32.516Z,4.61
2019-02-03T07:07:34.169Z,4.62
2019-02-03T07:08:32.218Z,4.6
2019-02-03T07:09:32.129Z,4.61
2019-02-03T07:10:31.964Z,4.59
2019-02-03T07:11:31.990Z,4.59
2019-02-03T07:12:32.164Z,4.61
2019-02-03T07:13:31.998Z,4.61
2019-02-03T07:14:31.918Z,4.61
2019-02-03T07:15:33.442Z,4.6
2019-02-03T07:16:45.914Z,4.58
2019-02-03T07:17:32.283Z,4.57
2019-02-03T07:18:32.046Z,4.56
2019-02-03T07:19:32.386Z,4.57
2019-02-03T07:20:32.127Z,4.56
2019-02-03T07:21:32.214Z,4.54
2019-02-03T07:22:32.406Z,4.53
2019-02-03T07:23:34.175Z,4.54
2019-02-03T07:24:32.048Z,4.54
2019-02-03T07:25:32.119Z,4.52
2019-02-03T07:26:31.933Z,4.49
2019-02-03T07:27:31.994Z,4.51
2019-02-03T07:28:32.139Z,4.51
2019-02-03T07:29:32.498Z,4.5
2019-02-03T07:30:32.045Z,4.53
2019-02-03T07:31:33.454Z,4.5
2019-02-03T07:32:32.165Z,4.46
2019-02-03T07:33:31.844Z,4.5
2019-02-03T07:34:32.474Z,4.5
2019-02-03T07:35:31.894Z,4.48
2019-02-03T07:36:32.295Z,4.47
2019-02-03T07:37:32.024Z,4.44
2019-02-03T07:38:32.222Z,4.45
2019-02-03T07:39:34.017Z,4.45
2019-02-03T07:40:32.238Z,4.44
2019-02-03T07:41:31.870Z,4.45
2019-02-03T07:42:32.153Z,4.45
2019-02-03T07:43:32.129Z,4.43
2019-02-03T07:44:33.195Z,4.44
2019-02-03T07:45:31.986Z,4.43
2019-02-03T07:46:32.490Z,4.44
2019-02-03T07:47:34.030Z,4.44
2019-02-03T07:48:34.131Z,4.44
2019-02-03T07:49:32.493Z,4.44
2019-02-03T07:50:32.412Z,4.45
2019-02-03T07:51:32.292Z,4.46
2019-02-03T07:52:31.889Z,4.45
2019-02-03T07:53:32.222Z,4.46
2019-02-03T07:54:32.030Z,4.41
2019-02-03T07:55:33.615Z,4.44
2019-02-03T07:56:31.831Z,4.44
2019-02-03T07:57:32.187Z,4.41
2019-02-03T07:58:31.886Z,4.42
2019-02-03T07:59:32.584Z,4.41
2019-02-03T08:00:32.065Z,4.42
2019-02-03T08:01:31.966Z,4.43
2019-02-03T08:02:32.772Z,4.44
2019-02-03T08:03:33.468Z,4.42
2019-02-03T08:04:32.505Z,4.44
2019-02-03T08:05:32.512Z,4.44
2019-02-03T08:06:32.189Z,4.4
2019-02-03T08:07:32.085Z,4.43
2019-02-03T08:08:31.928Z,4.4
2019-02-03T08:09:32.639Z,4.42
2019-02-03T08:10:31.930Z,4.41
2019-02-03T08:11:33.680Z,4.44
2019-02-03T08:12:32.162Z,4.42
2019-02-03T08:13:32.158Z,4.44
2019-02-03T08:14:32.267Z,4.44
2019-02-03T08:15:33.549Z,4.43
2019-02-03T08:16:32.252Z,4.45
2019-02-03T08:17:31.809Z,4.44
2019-02-03T08:18:32.082Z,4.42
2019-02-03T08:19:34.085Z,4.44
2019-02-03T08:20:31.784Z,4.45
2019-02-03T08:21:32.215Z,4.46
2019-02-03T08:22:31.866Z,4.47
2019-02-03T08:23:32.004Z,4.46
2019-02-03T08:24:32.002Z,4.45
2019-02-03T08:25:31.778Z,4.44
2019-02-03T08:26:31.922Z,4.45
2019-02-03T08:27:31.850Z,4.46
2019-02-03T08:28:32.758Z,4.46
2019-02-03T08:29:32.009Z,4.47
2019-02-03T08:30:31.810Z,4.49
2019-02-03T08:31:31.807Z,4.51
2019-02-03T08:32:32.050Z,4.51
2019-02-03T08:33:33.632Z,4.53
2019-02-03T08:34:31.833Z,4.52
2019-02-03T08:35:34.858Z,4.54
2019-02-03T08:36:32.668Z,4.54
2019-02-03T08:37:31.827Z,4.55
2019-02-03T08:38:31.908Z,4.56
2019-02-03T08:39:32.107Z,4.57
2019-02-03T08:40:37.985Z,4.57
2019-02-03T08:41:31.779Z,4.59
2019-02-03T08:42:35.885Z,4.57
2019-02-03T08:43:32.078Z,4.58
2019-02-03T08:44:32.213Z,4.58
2019-02-03T08:45:32.126Z,4.59
2019-02-03T08:46:31.811Z,4.61
2019-02-03T08:47:32.386Z,4.62
2019-02-03T08:48:31.812Z,4.61
2019-02-03T08:49:32.361Z,4.61
2019-02-03T08:50:32.741Z,4.62
2019-02-03T08:51:32.742Z,4.63
2019-02-03T08:52:32.286Z,4.64
2019-02-03T08:53:31.789Z,4.66
2019-02-03T08:54:31.785Z,4.65
2019-02-03T08:55:31.786Z,4.66
2019-02-03T08:56:31.883Z,4.66
2019-02-03T08:57:39.535Z,4.66
2019-02-03T08:58:33.120Z,4.68
2019-02-03T08:59:36.618Z,4.69
2019-02-03T09:00:32.005Z,4.68
2019-02-03T09:01:31.820Z,4.68
2019-02-03T09:02:33.000Z,4.69
2019-02-03T09:03:32.036Z,4.67
2019-02-03T09:04:31.768Z,4.68
2019-02-03T09:05:31.966Z,4.69
2019-02-03T09:06:31.828Z,4.71
2019-02-03T09:07:33.704Z,4.69
2019-02-03T09:08:32.320Z,4.7
2019-02-03T09:09:31.775Z,4.7
2019-02-03T09:10:31.818Z,4.72
2019-02-03T09:11:31.842Z,4.71
2019-02-03T09:12:33.473Z,4.69
2019-02-03T09:13:32.380Z,4.7
2019-02-03T09:14:31.753Z,4.69
2019-02-03T09:15:32.133Z,4.66
2019-02-03T09:16:32.136Z,4.67
2019-02-03T09:17:32.194Z,4.65
2019-02-03T09:18:31.724Z,4.67
2019-02-03T09:19:32.008Z,4.66
2019-02-03T09:20:31.859Z,4.69
2019-02-03T09:21:31.818Z,4.66
2019-02-03T09:22:31.890Z,4.66
2019-02-03T09:23:31.782Z,4.64
2019-02-03T09:24:31.880Z,4.66
2019-02-03T09:25:31.710Z,4.65
2019-02-03T09:26:32.736Z,4.63
2019-02-03T09:27:32.252Z,4.6
2019-02-03T09:28:31.860Z,4.63
2019-02-03T09:29:33.261Z,4.65
2019-02-03T09:30:32.346Z,4.63
2019-02-03T09:31:33.358Z,4.58
2019-02-03T09:32:33.823Z,4.58
2019-02-03T09:33:32.057Z,4.6
2019-02-03T09:34:32.414Z,4.59
2019-02-03T09:35:32.637Z,4.61
2019-02-03T09:36:31.696Z,4.61
2019-02-03T09:37:31.713Z,4.56
2019-02-03T09:38:31.843Z,4.59
2019-02-03T09:39:31.879Z,4.59
2019-02-03T09:40:31.870Z,4.6
2019-02-03T09:41:32.005Z,4.61
2019-02-03T09:42:32.152Z,4.57
2019-02-03T09:43:32.066Z,4.6
2019-02-03T09:45:32.306Z,4.58
2019-02-03T09:46:35.094Z,4.59
2019-02-03T09:47:31.751Z,4.6
2019-02-03T09:48:31.686Z,4.6
2019-02-03T09:49:31.690Z,4.61
2019-02-03T09:50:32.159Z,4.58
2019-02-03T09:51:32.000Z,4.58
2019-02-03T09:52:32.021Z,4.6
2019-02-03T09:53:32.011Z,4.59
2019-02-03T09:54:31.772Z,4.57
2019-02-03T09:55:32.096Z,4.57
2019-02-03T09:56:31.867Z,4.59
2019-02-03T09:57:31.714Z,4.6
2019-02-03T09:58:32.673Z,4.61
2019-02-03T09:59:31.734Z,4.6
2019-02-03T10:00:32.047Z,4.61
2019-02-03T10:01:33.784Z,4.62
2019-02-03T10:02:32.963Z,4.62
2019-02-03T10:03:31.699Z,4.61
2019-02-03T10:04:31.655Z,4.61
2019-02-03T10:05:31.740Z,4.62
2019-02-03T10:06:31.811Z,4.63
2019-02-03T10:07:32.663Z,4.61
2019-02-03T10:08:41.252Z,4.62
2019-02-03T10:09:33.632Z,4.63
2019-02-03T10:10:32.659Z,4.63
2019-02-03T10:11:33.760Z,4.66
2019-02-03T10:12:31.690Z,4.65
2019-02-03T10:13:33.043Z,4.66
2019-02-03T10:14:34.212Z,4.61
2019-02-03T10:15:32.716Z,4.61
2019-02-03T10:16:31.790Z,4.62
2019-02-03T10:17:32.092Z,4.62
2019-02-03T10:18:32.305Z,4.63
2019-02-03T10:19:31.656Z,4.67
2019-02-03T10:20:31.614Z,4.62
2019-02-03T10:21:32.421Z,4.61
2019-02-03T10:22:31.625Z,4.6
2019-02-03T10:23:31.991Z,4.58
2019-02-03T10:24:42.748Z,4.63
2019-02-03T10:25:31.690Z,4.64
2019-02-03T10:26:31.698Z,4.58
2019-02-03T10:27:31.630Z,4.57
2019-02-03T10:28:31.915Z,4.61
2019-02-03T10:29:31.707Z,4.59
2019-02-03T10:30:31.605Z,4.6
2019-02-03T10:31:31.880Z,4.6
2019-02-03T10:32:31.636Z,4.61
2019-02-03T10:33:31.743Z,4.62
2019-02-03T10:34:31.751Z,4.65
2019-02-03T10:35:31.618Z,4.62
2019-02-03T10:36:31.802Z,4.58
2019-02-03T10:37:31.826Z,4.61
2019-02-03T10:38:31.619Z,4.6
2019-02-03T10:39:33.417Z,4.59
2019-02-03T10:40:32.106Z,4.6
2019-02-03T10:41:31.707Z,4.58
2019-02-03T10:42:31.837Z,4.6
2019-02-03T10:43:31.844Z,4.6
2019-02-03T10:44:31.656Z,4.6
2019-02-03T10:45:33.432Z,4.61
2019-02-03T10:46:31.818Z,4.59
2019-02-03T10:47:31.631Z,4.59
2019-02-03T10:48:31.853Z,4.57
2019-02-03T10:49:31.835Z,4.55
2019-02-03T10:50:33.768Z,4.56
2019-02-03T10:51:31.699Z,4.55
2019-02-03T10:52:31.622Z,4.53
2019-02-03T10:53:31.589Z,4.53
2019-02-03T10:54:31.931Z,4.54
2019-02-03T10:55:31.576Z,4.56
2019-02-03T10:56:31.732Z,4.51
2019-02-03T10:57:31.593Z,4.54
2019-02-03T10:58:33.343Z,4.54
2019-02-03T10:59:31.780Z,4.56
2019-02-03T11:00:31.736Z,4.54
2019-02-03T11:01:31.807Z,4.55
2019-02-03T11:02:31.882Z,4.58
2019-02-03T11:03:31.728Z,4.58
2019-02-03T11:04:31.707Z,4.58
2019-02-03T11:05:31.660Z,4.57
2019-02-03T11:06:31.704Z,4.54
2019-02-03T11:07:31.748Z,4.51
2019-02-03T11:08:32.259Z,4.51
2019-02-03T11:09:31.934Z,4.49
2019-02-03T11:10:32.261Z,4.48
2019-02-03T11:11:37.258Z,4.48
2019-02-03T11:12:31.781Z,4.5
2019-02-03T11:13:33.004Z,4.49
2019-02-03T11:14:31.617Z,4.48
2019-02-03T11:15:31.792Z,4.47
2019-02-03T11:16:31.578Z,4.48
2019-02-03T11:17:32.456Z,4.49
2019-02-03T11:18:31.574Z,4.48
2019-02-03T11:19:31.725Z,4.48
2019-02-03T11:20:31.689Z,4.47
2019-02-03T11:21:34.286Z,4.48
2019-02-03T11:22:31.632Z,4.49
2019-02-03T11:23:32.201Z,4.53
2019-02-03T11:24:31.712Z,4.55
2019-02-03T11:25:32.299Z,4.53
2019-02-03T11:26:31.771Z,4.51
2019-02-03T11:27:31.741Z,4.51
2019-02-03T11:28:33.210Z,4.48
2019-02-03T11:29:31.770Z,4.5
2019-02-03T11:30:31.913Z,4.53
2019-02-03T11:31:31.785Z,4.51
2019-02-03T11:32:31.717Z,4.52
2019-02-03T11:33:31.777Z,4.55
2019-02-03T11:34:31.761Z,4.56
2019-02-03T11:35:31.565Z,4.51
2019-02-03T11:36:33.772Z,4.53
2019-02-03T11:37:31.625Z,4.5
2019-02-03T11:38:32.087Z,4.51
2019-02-03T11:39:32.237Z,4.49
2019-02-03T11:40:31.675Z,4.5
2019-02-03T11:41:31.596Z,4.52
2019-02-03T11:42:31.878Z,4.51
2019-02-03T11:43:31.544Z,4.53
2019-02-03T11:44:31.798Z,4.54
2019-02-03T11:45:31.890Z,4.53
2019-02-03T11:46:31.675Z,4.55
2019-02-03T11:47:31.549Z,4.56
2019-02-03T11:48:31.644Z,4.56
2019-02-03T11:49:32.214Z,4.58
2019-02-03T11:50:32.229Z,4.55
2019-02-03T11:51:31.612Z,4.54
2019-02-03T11:52:31.618Z,4.55
2019-02-03T11:53:31.898Z,4.56
2019-02-03T11:54:31.804Z,4.57
2019-02-03T11:55:31.621Z,4.59
2019-02-03T11:56:31.525Z,4.59
2019-02-03T11:57:31.714Z,4.61
2019-02-03T11:58:31.520Z,4.62
2019-02-03T11:59:31.939Z,4.63
2019-02-03T12:00:32.086Z,4.62
2019-02-03T12:01:31.639Z,4.6
2019-02-03T12:02:42.611Z,4.57
2019-02-03T12:03:32.361Z,4.61
2019-02-03T12:04:31.650Z,4.63
2019-02-03T12:05:31.854Z,4.64
2019-02-03T12:06:32.186Z,4.62
2019-02-03T12:07:31.480Z,4.61
2019-02-03T12:08:33.275Z,4.56
2019-02-03T12:09:32.094Z,4.61
2019-02-03T12:10:31.822Z,4.61
2019-02-03T12:11:31.830Z,4.61
2019-02-03T12:12:31.809Z,4.59
2019-02-03T12:13:31.472Z,4.59
2019-02-03T12:14:31.503Z,4.61
2019-02-03T12:15:32.444Z,4.63
2019-02-03T12:16:33.040Z,4.64
2019-02-03T12:17:31.586Z,4.64
2019-02-03T12:18:32.591Z,4.62
2019-02-03T12:19:31.679Z,4.58
2019-02-03T12:20:31.802Z,4.6
2019-02-03T12:21:31.503Z,4.63
2019-02-03T12:22:31.504Z,4.63
2019-02-03T12:23:31.446Z,4.66
2019-02-03T12:24:32.714Z,4.66
2019-02-03T12:25:31.552Z,4.62
2019-02-03T12:26:31.460Z,4.62
2019-02-03T12:27:31.729Z,4.64
2019-02-03T12:28:31.473Z,4.68
2019-02-03T12:29:31.580Z,4.66
2019-02-03T12:30:31.483Z,4.6
2019-02-03T12:31:31.465Z,4.63
2019-02-03T12:32:31.640Z,4.65
2019-02-03T12:33:31.459Z,4.65
2019-02-03T12:34:31.564Z,4.66
2019-02-03T12:35:31.469Z,4.67
2019-02-03T12:36:31.452Z,4.66
2019-02-03T12:37:31.478Z,4.65
2019-02-03T12:38:31.457Z,4.66
2019-02-03T12:39:31.472Z,4.69
2019-02-03T12:40:31.675Z,4.69
2019-02-03T12:41:33.402Z,4.68
2019-02-03T12:42:31.492Z,4.67
2019-02-03T12:43:33.389Z,4.68
2019-02-03T12:44:32.458Z,4.66
2019-02-03T12:45:31.445Z,4.67
2019-02-03T12:46:31.658Z,4.68
2019-02-03T12:47:31.530Z,4.68
2019-02-03T12:48:31.504Z,4.68
2019-02-03T12:49:32.860Z,4.71
2019-02-03T12:50:32.013Z,4.71
2019-02-03T12:51:31.928Z,4.7
2019-02-03T12:52:31.626Z,4.72
2019-02-03T12:53:32.454Z,4.75
2019-02-03T12:54:31.696Z,4.73
2019-02-03T12:55:32.580Z,4.73
2019-02-03T12:56:31.692Z,4.72
2019-02-03T12:57:32.020Z,4.73
2019-02-03T12:58:32.003Z,4.73
2019-02-03T12:59:32.370Z,4.74
2019-02-03T13:00:31.681Z,4.71
2019-02-03T13:01:32.694Z,4.74
2019-02-03T13:02:31.600Z,4.75
2019-02-03T13:03:33.285Z,4.71
2019-02-03T13:04:33.027Z,4.73
2019-02-03T13:05:31.680Z,4.73
2019-02-03T13:06:31.525Z,4.73
2019-02-03T13:07:31.974Z,4.72
2019-02-03T13:08:31.725Z,4.72
2019-02-03T13:09:31.489Z,4.73
2019-02-03T13:10:31.612Z,4.73
2019-02-03T13:11:31.733Z,4.72
2019-02-03T13:12:32.269Z,4.72
2019-02-03T13:13:31.815Z,4.76
2019-02-03T13:14:31.508Z,4.72
2019-02-03T13:15:31.478Z,4.72
2019-02-03T13:16:31.418Z,4.73
2019-02-03T13:17:31.415Z,4.75
2019-02-03T13:18:32.766Z,4.71
2019-02-03T13:19:31.517Z,4.72
2019-02-03T13:20:31.786Z,4.72
2019-02-03T13:21:33.165Z,4.73
2019-02-03T13:22:31.419Z,4.72